sensor_id;sensor_type;location;lat;lon;timestamp;pressure;altitude;pressure_sealevel;temperature;humidity
41800;BME280;27468;47.460;19.034;2024-02-23T00:00:30;99004.97;;;11.36;52.37
41800;BME280;27468;47.460;19.034;2024-02-23T00:02:55;99018.25;;;11.34;52.94
41800;BME280;27468;47.460;19.034;2024-02-23T00:05:23;99028.53;;;11.40;52.97
41800;BME280;27468;47.460;19.034;2024-02-23T00:07:48;99007.50;;;11.18;53.28
41800;BME280;27468;47.460;19.034;2024-02-23T00:10:13;99016.47;;;11.35;53.37
41800;BME280;27468;47.460;19.034;2024-02-23T00:12:39;99033.38;;;11.49;53.21
41800;BME280;27468;47.460;19.034;2024-02-23T00:15:04;99013.81;;;11.35;53.23
41800;BME280;27468;47.460;19.034;2024-02-23T00:17:30;99014.53;;;11.38;53.27
41800;BME280;27468;47.460;19.034;2024-02-23T00:19:55;99024.03;;;11.42;53.43
41800;BME280;27468;47.460;19.034;2024-02-23T00:22:20;99020.19;;;11.49;53.63
41800;BME280;27468;47.460;19.034;2024-02-23T00:24:46;99044.94;;;11.66;53.61
41800;BME280;27468;47.460;19.034;2024-02-23T00:27:11;99013.63;;;11.58;53.20
41800;BME280;27468;47.460;19.034;2024-02-23T00:29:37;99012.06;;;11.54;53.10
41800;BME280;27468;47.460;19.034;2024-02-23T00:32:03;99020.53;;;11.61;53.19
41800;BME280;27468;47.460;19.034;2024-02-23T00:34:29;99004.22;;;11.52;53.26
41800;BME280;27468;47.460;19.034;2024-02-23T00:36:56;99049.94;;;11.72;53.47
41800;BME280;27468;47.460;19.034;2024-02-23T00:39:22;99026.69;;;11.61;53.58
41800;BME280;27468;47.460;19.034;2024-02-23T00:41:48;99041.16;;;11.71;53.75
41800;BME280;27468;47.460;19.034;2024-02-23T00:44:13;99008.25;;;11.59;53.91
41800;BME280;27468;47.460;19.034;2024-02-23T00:46:39;99016.84;;;11.65;53.77
41800;BME280;27468;47.460;19.034;2024-02-23T00:49:05;99028.59;;;11.78;53.29
41800;BME280;27468;47.460;19.034;2024-02-23T00:51:31;99015.63;;;11.72;53.18
41800;BME280;27468;47.460;19.034;2024-02-23T00:53:56;99042.72;;;11.77;53.43
41800;BME280;27468;47.460;19.034;2024-02-23T00:56:21;99006.06;;;11.69;53.34
41800;BME280;27468;47.460;19.034;2024-02-23T00:58:47;99035.59;;;11.58;54.06
41800;BME280;27468;47.460;19.034;2024-02-23T01:01:12;99003.69;;;11.63;54.16
41800;BME280;27468;47.460;19.034;2024-02-23T01:03:37;99010.03;;;11.59;54.75
41800;BME280;27468;47.460;19.034;2024-02-23T01:06:03;99020.31;;;11.65;55.19
41800;BME280;27468;47.460;19.034;2024-02-23T01:08:28;99015.19;;;11.62;55.67
41800;BME280;27468;47.460;19.034;2024-02-23T01:10:53;99018.81;;;11.80;56.46
41800;BME280;27468;47.460;19.034;2024-02-23T01:13:19;99005.28;;;11.67;57.04
41800;BME280;27468;47.460;19.034;2024-02-23T01:15:44;99005.84;;;11.74;57.64
41800;BME280;27468;47.460;19.034;2024-02-23T01:18:10;98993.94;;;11.65;58.55
41800;BME280;27468;47.460;19.034;2024-02-23T01:20:36;99017.03;;;11.80;58.78
41800;BME280;27468;47.460;19.034;2024-02-23T01:23:01;98997.00;;;11.75;59.96
41800;BME280;27468;47.460;19.034;2024-02-23T01:25:27;98994.66;;;11.69;60.48
41800;BME280;27468;47.460;19.034;2024-02-23T01:27:52;99003.44;;;11.69;61.64
41800;BME280;27468;47.460;19.034;2024-02-23T01:30:17;98994.00;;;11.64;62.95
41800;BME280;27468;47.460;19.034;2024-02-23T01:32:44;98992.94;;;11.68;63.83
41800;BME280;27468;47.460;19.034;2024-02-23T01:35:10;98977.22;;;11.65;64.43
41800;BME280;27468;47.460;19.034;2024-02-23T01:37:35;98976.16;;;11.69;65.10
41800;BME280;27468;47.460;19.034;2024-02-23T01:40:00;99006.47;;;11.80;65.63
41800;BME280;27468;47.460;19.034;2024-02-23T01:42:26;98999.47;;;11.79;66.43
41800;BME280;27468;47.460;19.034;2024-02-23T01:44:52;99004.06;;;11.74;67.37
41800;BME280;27468;47.460;19.034;2024-02-23T01:47:17;98992.16;;;11.66;67.70
41800;BME280;27468;47.460;19.034;2024-02-23T01:49:44;98978.31;;;11.61;68.78
41800;BME280;27468;47.460;19.034;2024-02-23T01:52:10;98989.56;;;11.64;68.76
41800;BME280;27468;47.460;19.034;2024-02-23T01:54:36;98961.41;;;11.46;69.03
41800;BME280;27468;47.460;19.034;2024-02-23T01:57:02;98974.63;;;11.46;69.95
41800;BME280;27468;47.460;19.034;2024-02-23T01:59:28;99000.78;;;11.50;70.01
41800;BME280;27468;47.460;19.034;2024-02-23T02:01:54;98969.09;;;11.32;70.39
41800;BME280;27468;47.460;19.034;2024-02-23T02:04:19;98993.88;;;11.48;70.32
41800;BME280;27468;47.460;19.034;2024-02-23T02:06:48;98993.72;;;11.51;70.47
41800;BME280;27468;47.460;19.034;2024-02-23T02:09:14;98996.00;;;11.58;70.54
41800;BME280;27468;47.460;19.034;2024-02-23T02:11:49;98958.47;;;11.33;70.76
41800;BME280;27468;47.460;19.034;2024-02-23T02:14:15;98991.72;;;11.37;71.29
41800;BME280;27468;47.460;19.034;2024-02-23T02:16:41;98935.91;;;11.07;71.33
41800;BME280;27468;47.460;19.034;2024-02-23T02:19:06;98957.44;;;11.17;71.89
41800;BME280;27468;47.460;19.034;2024-02-23T02:21:33;98965.38;;;11.17;72.12
41800;BME280;27468;47.460;19.034;2024-02-23T02:23:58;98982.78;;;11.21;72.44
41800;BME280;27468;47.460;19.034;2024-02-23T02:26:23;98983.94;;;11.34;71.76
41800;BME280;27468;47.460;19.034;2024-02-23T02:28:49;98965.03;;;11.24;72.55
41800;BME280;27468;47.460;19.034;2024-02-23T02:31:14;98983.22;;;11.31;73.05
41800;BME280;27468;47.460;19.034;2024-02-23T02:33:40;98988.09;;;11.40;72.17
41800;BME280;27468;47.460;19.034;2024-02-23T02:36:06;98958.03;;;11.23;71.96
41800;BME280;27468;47.460;19.034;2024-02-23T02:38:31;98944.78;;;11.25;72.44
41800;BME280;27468;47.460;19.034;2024-02-23T02:40:58;98960.13;;;11.36;72.56
41800;BME280;27468;47.460;19.034;2024-02-23T02:43:25;98965.31;;;11.37;72.86
41800;BME280;27468;47.460;19.034;2024-02-23T02:45:50;98963.16;;;11.27;73.71
41800;BME280;27468;47.460;19.034;2024-02-23T02:48:16;98968.59;;;11.23;73.86
41800;BME280;27468;47.460;19.034;2024-02-23T02:50:42;98957.31;;;11.20;74.57
41800;BME280;27468;47.460;19.034;2024-02-23T02:53:07;98958.59;;;11.11;75.27
41800;BME280;27468;47.460;19.034;2024-02-23T02:55:32;98985.66;;;11.35;75.03
41800;BME280;27468;47.460;19.034;2024-02-23T02:57:57;98981.44;;;11.31;75.11
41800;BME280;27468;47.460;19.034;2024-02-23T03:00:24;98982.78;;;11.21;75.41
41800;BME280;27468;47.460;19.034;2024-02-23T03:02:49;98980.66;;;11.29;76.13
41800;BME280;27468;47.460;19.034;2024-02-23T03:05:14;98984.28;;;11.27;76.87
41800;BME280;27468;47.460;19.034;2024-02-23T03:07:40;98979.94;;;11.25;76.62
41800;BME280;27468;47.460;19.034;2024-02-23T03:10:06;98971.34;;;11.20;78.01
41800;BME280;27468;47.460;19.034;2024-02-23T03:12:31;98964.56;;;11.15;78.15
41800;BME280;27468;47.460;19.034;2024-02-23T03:14:57;98966.50;;;11.11;78.48
41800;BME280;27468;47.460;19.034;2024-02-23T03:17:22;98980.00;;;11.24;79.02
41800;BME280;27468;47.460;19.034;2024-02-23T03:19:48;98957.00;;;11.07;79.10
41800;BME280;27468;47.460;19.034;2024-02-23T03:22:15;98978.06;;;11.28;79.11
41800;BME280;27468;47.460;19.034;2024-02-23T03:24:41;98966.50;;;11.11;79.49
41800;BME280;27468;47.460;19.034;2024-02-23T03:27:06;98998.13;;;11.32;80.15
41800;BME280;27468;47.460;19.034;2024-02-23T03:29:32;98966.34;;;11.14;80.98
41800;BME280;27468;47.460;19.034;2024-02-23T03:31:57;98997.47;;;11.27;80.63
41800;BME280;27468;47.460;19.034;2024-02-23T03:34:23;98973.41;;;11.14;81.50
41800;BME280;27468;47.460;19.034;2024-02-23T03:36:48;98988.97;;;11.20;81.99
41800;BME280;27468;47.460;19.034;2024-02-23T03:39:14;98989.50;;;11.28;81.99
41800;BME280;27468;47.460;19.034;2024-02-23T03:41:39;98974.00;;;11.00;81.37
41800;BME280;27468;47.460;19.034;2024-02-23T03:44:04;98988.97;;;11.00;81.46
41800;BME280;27468;47.460;19.034;2024-02-23T03:46:30;98953.50;;;10.88;81.54
41800;BME280;27468;47.460;19.034;2024-02-23T03:48:56;98993.00;;;11.08;80.81
41800;BME280;27468;47.460;19.034;2024-02-23T03:51:21;98973.41;;;10.95;80.62
41800;BME280;27468;47.460;19.034;2024-02-23T03:53:46;98982.56;;;10.86;81.25
41800;BME280;27468;47.460;19.034;2024-02-23T03:56:12;98988.19;;;10.98;79.98
41800;BME280;27468;47.460;19.034;2024-02-23T03:58:37;98972.06;;;10.85;80.30
41800;BME280;27468;47.460;19.034;2024-02-23T04:01:03;98992.72;;;10.96;81.23
41800;BME280;27468;47.460;19.034;2024-02-23T04:03:28;98963.69;;;10.75;81.42
41800;BME280;27468;47.460;19.034;2024-02-23T04:05:53;99004.97;;;10.97;81.62
41800;BME280;27468;47.460;19.034;2024-02-23T04:08:19;98974.72;;;10.85;81.81
41800;BME280;27468;47.460;19.034;2024-02-23T04:10:44;98999.75;;;10.95;80.16
41800;BME280;27468;47.460;19.034;2024-02-23T04:13:09;98972.88;;;10.87;80.16
41800;BME280;27468;47.460;19.034;2024-02-23T04:15:39;98963.19;;;10.87;79.52
41800;BME280;27468;47.460;19.034;2024-02-23T04:18:04;98957.19;;;10.84;80.39
41800;BME280;27468;47.460;19.034;2024-02-23T04:20:30;99001.91;;;11.06;80.36
41800;BME280;27468;47.460;19.034;2024-02-23T04:22:55;99002.63;;;11.09;81.39
41800;BME280;27468;47.460;19.034;2024-02-23T04:25:21;98998.47;;;11.04;81.09
41800;BME280;27468;47.460;19.034;2024-02-23T04:27:46;98960.53;;;10.87;80.66
41800;BME280;27468;47.460;19.034;2024-02-23T04:30:12;98998.22;;;11.10;80.91
41800;BME280;27468;47.460;19.034;2024-02-23T04:32:38;98997.81;;;11.19;80.58
41800;BME280;27468;47.460;19.034;2024-02-23T04:35:04;99005.34;;;11.08;81.19
41800;BME280;27468;47.460;19.034;2024-02-23T04:37:30;98983.78;;;10.98;81.42
41800;BME280;27468;47.460;19.034;2024-02-23T04:39:55;98978.22;;;11.04;80.32
41800;BME280;27468;47.460;19.034;2024-02-23T04:42:20;98963.53;;;10.99;80.45
41800;BME280;27468;47.460;19.034;2024-02-23T04:44:46;99015.56;;;11.15;79.90
41800;BME280;27468;47.460;19.034;2024-02-23T04:47:11;99006.78;;;11.15;80.21
41800;BME280;27468;47.460;19.034;2024-02-23T04:49:37;98999.06;;;11.10;78.68
41800;BME280;27468;47.460;19.034;2024-02-23T04:52:02;99015.47;;;11.17;79.12
41800;BME280;27468;47.460;19.034;2024-02-23T04:54:28;99021.56;;;11.19;79.51
41800;BME280;27468;47.460;19.034;2024-02-23T04:56:53;99004.94;;;11.17;78.88
41800;BME280;27468;47.460;19.034;2024-02-23T04:59:18;98985.28;;;11.04;78.86
41800;BME280;27468;47.460;19.034;2024-02-23T05:01:44;98988.38;;;11.13;77.80
41800;BME280;27468;47.460;19.034;2024-02-23T05:04:09;99022.66;;;11.13;77.96
41800;BME280;27468;47.460;19.034;2024-02-23T05:06:34;98990.38;;;11.08;77.98
41800;BME280;27468;47.460;19.034;2024-02-23T05:09:00;99023.41;;;11.17;78.05
41800;BME280;27468;47.460;19.034;2024-02-23T05:11:26;98989.44;;;11.09;78.41
41800;BME280;27468;47.460;19.034;2024-02-23T05:13:52;99032.09;;;11.19;79.68
41800;BME280;27468;47.460;19.034;2024-02-23T05:16:17;99016.00;;;11.05;81.23
41800;BME280;27468;47.460;19.034;2024-02-23T05:18:43;99042.72;;;11.17;80.73
41800;BME280;27468;47.460;19.034;2024-02-23T05:21:09;99038.16;;;11.01;82.12
41800;BME280;27468;47.460;19.034;2024-02-23T05:23:35;99047.06;;;10.98;82.50
41800;BME280;27468;47.460;19.034;2024-02-23T05:26:00;99046.38;;;10.95;83.89
41800;BME280;27468;47.460;19.034;2024-02-23T05:28:25;99048.06;;;11.16;82.30
41800;BME280;27468;47.460;19.034;2024-02-23T05:30:51;99054.53;;;11.09;81.93
41800;BME280;27468;47.460;19.034;2024-02-23T05:33:16;99028.28;;;10.85;82.09
41800;BME280;27468;47.460;19.034;2024-02-23T05:35:45;99064.16;;;11.10;83.32
41800;BME280;27468;47.460;19.034;2024-02-23T05:38:11;99052.09;;;11.04;83.21
41800;BME280;27468;47.460;19.034;2024-02-23T05:40:36;99028.22;;;10.67;84.04
41800;BME280;27468;47.460;19.034;2024-02-23T05:43:01;99077.16;;;10.94;85.67
41800;BME280;27468;47.460;19.034;2024-02-23T05:45:27;99054.72;;;10.84;85.00
41800;BME280;27468;47.460;19.034;2024-02-23T05:47:52;99069.03;;;10.78;85.58
41800;BME280;27468;47.460;19.034;2024-02-23T05:50:17;99063.06;;;10.73;86.06
41800;BME280;27468;47.460;19.034;2024-02-23T05:52:43;99087.69;;;10.94;86.58
41800;BME280;27468;47.460;19.034;2024-02-23T05:55:08;99090.91;;;11.01;87.29
41800;BME280;27468;47.460;19.034;2024-02-23T05:57:34;99097.91;;;10.81;87.51
41800;BME280;27468;47.460;19.034;2024-02-23T05:59:59;99068.53;;;10.69;87.93
41800;BME280;27468;47.460;19.034;2024-02-23T06:02:25;99118.44;;;10.95;88.05
41800;BME280;27468;47.460;19.034;2024-02-23T06:04:50;99115.25;;;10.87;88.52
41800;BME280;27468;47.460;19.034;2024-02-23T06:07:16;99109.78;;;10.91;88.25
41800;BME280;27468;47.460;19.034;2024-02-23T06:09:42;99071.97;;;10.71;87.07
41800;BME280;27468;47.460;19.034;2024-02-23T06:12:07;99125.72;;;10.88;87.13
41800;BME280;27468;47.460;19.034;2024-02-23T06:14:33;99114.13;;;10.93;88.35
41800;BME280;27468;47.460;19.034;2024-02-23T06:16:59;99081.47;;;10.75;88.60
41800;BME280;27468;47.460;19.034;2024-02-23T06:19:24;99131.63;;;11.15;89.17
41800;BME280;27468;47.460;19.034;2024-02-23T06:21:50;99120.34;;;11.12;89.16
41800;BME280;27468;47.460;19.034;2024-02-23T06:24:16;99089.47;;;10.94;87.86
41800;BME280;27468;47.460;19.034;2024-02-23T06:26:42;99113.47;;;11.08;88.18
41800;BME280;27468;47.460;19.034;2024-02-23T06:29:07;99135.38;;;11.10;88.70
41800;BME280;27468;47.460;19.034;2024-02-23T06:31:39;99104.69;;;10.87;89.64
41800;BME280;27468;47.460;19.034;2024-02-23T06:34:05;99130.81;;;11.13;89.47
41800;BME280;27468;47.460;19.034;2024-02-23T06:36:30;99139.66;;;11.12;90.41
41800;BME280;27468;47.460;19.034;2024-02-23T06:38:56;99149.75;;;11.23;89.62
41800;BME280;27468;47.460;19.034;2024-02-23T06:41:21;99129.34;;;11.06;90.95
41800;BME280;27468;47.460;19.034;2024-02-23T06:43:47;99150.56;;;11.25;90.96
41800;BME280;27468;47.460;19.034;2024-02-23T06:46:12;99123.75;;;11.14;90.76
41800;BME280;27468;47.460;19.034;2024-02-23T06:48:38;99131.56;;;11.17;91.21
41800;BME280;27468;47.460;19.034;2024-02-23T06:51:07;99127.88;;;11.21;91.00
41800;BME280;27468;47.460;19.034;2024-02-23T06:53:35;99141.97;;;11.20;90.49
41800;BME280;27468;47.460;19.034;2024-02-23T06:56:01;99149.88;;;11.20;92.15
41800;BME280;27468;47.460;19.034;2024-02-23T06:58:27;99146.13;;;11.25;92.77
41800;BME280;27468;47.460;19.034;2024-02-23T07:00:52;99147.66;;;11.31;92.54
41800;BME280;27468;47.460;19.034;2024-02-23T07:03:17;99137.84;;;11.35;92.69
41800;BME280;27468;47.460;19.034;2024-02-23T07:05:43;99159.72;;;11.57;92.22
41800;BME280;27468;47.460;19.034;2024-02-23T07:08:08;99158.97;;;11.55;91.85
41800;BME280;27468;47.460;19.034;2024-02-23T07:10:34;99171.94;;;11.59;91.67
41800;BME280;27468;47.460;19.034;2024-02-23T07:12:59;99171.19;;;11.56;92.16
41800;BME280;27468;47.460;19.034;2024-02-23T07:15:25;99144.50;;;11.43;92.33
41800;BME280;27468;47.460;19.034;2024-02-23T07:17:51;99158.84;;;11.56;91.99
41800;BME280;27468;47.460;19.034;2024-02-23T07:20:17;99165.16;;;11.54;92.56
41800;BME280;27468;47.460;19.034;2024-02-23T07:22:46;99176.41;;;11.57;92.31
41800;BME280;27468;47.460;19.034;2024-02-23T07:25:12;99178.06;;;11.60;92.28
41800;BME280;27468;47.460;19.034;2024-02-23T07:27:40;99145.22;;;11.47;91.54
41800;BME280;27468;47.460;19.034;2024-02-23T07:30:06;99169.28;;;11.59;91.82
41800;BME280;27468;47.460;19.034;2024-02-23T07:32:31;99171.66;;;11.66;91.77
41800;BME280;27468;47.460;19.034;2024-02-23T07:34:57;99168.38;;;11.61;91.36
41800;BME280;27468;47.460;19.034;2024-02-23T07:37:22;99178.41;;;11.52;91.70
41800;BME280;27468;47.460;19.034;2024-02-23T07:39:47;99181.00;;;11.54;91.52
41800;BME280;27468;47.460;19.034;2024-02-23T07:42:13;99157.69;;;11.43;91.67
41800;BME280;27468;47.460;19.034;2024-02-23T07:44:43;99159.66;;;11.38;92.05
41800;BME280;27468;47.460;19.034;2024-02-23T07:47:09;99171.44;;;11.51;92.19
41800;BME280;27468;47.460;19.034;2024-02-23T07:49:34;99185.34;;;11.55;91.42
41800;BME280;27468;47.460;19.034;2024-02-23T07:51:59;99176.63;;;11.53;91.86
41800;BME280;27468;47.460;19.034;2024-02-23T07:54:25;99163.84;;;11.44;91.06
41800;BME280;27468;47.460;19.034;2024-02-23T07:56:50;99187.03;;;11.56;91.42
41800;BME280;27468;47.460;19.034;2024-02-23T07:59:15;99197.94;;;11.69;90.64
41800;BME280;27468;47.460;19.034;2024-02-23T08:01:41;99172.16;;;11.55;90.80
41800;BME280;27468;47.460;19.034;2024-02-23T08:04:06;99182.50;;;11.59;91.10
41800;BME280;27468;47.460;19.034;2024-02-23T08:06:32;99148.31;;;11.36;90.97
41800;BME280;27468;47.460;19.034;2024-02-23T08:08:57;99183.09;;;11.46;90.39
41800;BME280;27468;47.460;19.034;2024-02-23T08:11:23;99203.59;;;11.59;91.49
41800;BME280;27468;47.460;19.034;2024-02-23T08:13:48;99167.34;;;11.44;92.07
41800;BME280;27468;47.460;19.034;2024-02-23T08:16:15;99209.47;;;11.66;91.82
41800;BME280;27468;47.460;19.034;2024-02-23T08:18:41;99180.56;;;11.63;90.44
41800;BME280;27468;47.460;19.034;2024-02-23T08:21:06;99204.94;;;11.70;90.27
41800;BME280;27468;47.460;19.034;2024-02-23T08:23:32;99183.53;;;11.55;90.53
41800;BME280;27468;47.460;19.034;2024-02-23T08:25:58;99185.19;;;11.38;92.29
41800;BME280;27468;47.460;19.034;2024-02-23T08:28:24;99195.63;;;11.41;92.86
41800;BME280;27468;47.460;19.034;2024-02-23T08:30:49;99180.53;;;11.44;92.85
41800;BME280;27468;47.460;19.034;2024-02-23T08:33:14;99206.47;;;11.55;93.25
41800;BME280;27468;47.460;19.034;2024-02-23T08:35:40;99214.09;;;11.61;93.21
41800;BME280;27468;47.460;19.034;2024-02-23T08:38:05;99200.78;;;11.64;92.82
41800;BME280;27468;47.460;19.034;2024-02-23T08:40:31;99211.25;;;11.66;92.94
41800;BME280;27468;47.460;19.034;2024-02-23T08:42:56;99230.06;;;11.80;92.47
41800;BME280;27468;47.460;19.034;2024-02-23T08:45:21;99239.50;;;11.85;92.08
41800;BME280;27468;47.460;19.034;2024-02-23T08:47:47;99226.09;;;11.90;91.48
41800;BME280;27468;47.460;19.034;2024-02-23T08:50:12;99217.91;;;11.96;90.60
41800;BME280;27468;47.460;19.034;2024-02-23T08:52:37;99226.41;;;11.82;91.35
41800;BME280;27468;47.460;19.034;2024-02-23T08:55:03;99214.38;;;11.75;92.46
41800;BME280;27468;47.460;19.034;2024-02-23T08:57:28;99249.34;;;12.02;92.07
41800;BME280;27468;47.460;19.034;2024-02-23T08:59:54;99238.09;;;11.97;91.81
41800;BME280;27468;47.460;19.034;2024-02-23T09:02:22;99236.84;;;11.85;92.32
41800;BME280;27468;47.460;19.034;2024-02-23T09:04:48;99256.34;;;12.03;92.04
41800;BME280;27468;47.460;19.034;2024-02-23T09:07:13;99226.63;;;11.98;92.44
41800;BME280;27468;47.460;19.034;2024-02-23T09:09:39;99230.31;;;11.94;92.52
41800;BME280;27468;47.460;19.034;2024-02-23T09:12:05;99225.97;;;11.93;92.16
41800;BME280;27468;47.460;19.034;2024-02-23T09:14:32;99224.19;;;11.94;92.59
41800;BME280;27468;47.460;19.034;2024-02-23T09:16:58;99214.81;;;11.86;91.91
41800;BME280;27468;47.460;19.034;2024-02-23T09:19:23;99245.06;;;12.18;91.76
41800;BME280;27468;47.460;19.034;2024-02-23T09:21:48;99251.22;;;12.19;91.67
41800;BME280;27468;47.460;19.034;2024-02-23T09:24:14;99224.56;;;12.05;91.18
41800;BME280;27468;47.460;19.034;2024-02-23T09:26:39;99246.00;;;12.17;90.64
41800;BME280;27468;47.460;19.034;2024-02-23T09:29:05;99250.47;;;12.15;91.76
41800;BME280;27468;47.460;19.034;2024-02-23T09:31:30;99226.69;;;12.15;91.46
41800;BME280;27468;47.460;19.034;2024-02-23T09:33:57;99229.41;;;12.14;91.62
41800;BME280;27468;47.460;19.034;2024-02-23T09:36:22;99232.28;;;12.09;90.89
41800;BME280;27468;47.460;19.034;2024-02-23T09:38:48;99243.16;;;12.22;91.89
41800;BME280;27468;47.460;19.034;2024-02-23T09:41:19;99218.63;;;12.18;92.61
41800;BME280;27468;47.460;19.034;2024-02-23T09:43:46;99260.19;;;12.35;93.06
41800;BME280;27468;47.460;19.034;2024-02-23T09:46:12;99232.09;;;12.33;91.87
41800;BME280;27468;47.460;19.034;2024-02-23T09:48:39;99258.28;;;12.57;91.77
41800;BME280;27468;47.460;19.034;2024-02-23T09:51:05;99265.06;;;12.63;91.29
41800;BME280;27468;47.460;19.034;2024-02-23T09:53:32;99257.69;;;12.51;90.67
41800;BME280;27468;47.460;19.034;2024-02-23T09:55:59;99269.00;;;12.54;89.52
41800;BME280;27468;47.460;19.034;2024-02-23T09:58:26;99271.28;;;12.62;90.21
41800;BME280;27468;47.460;19.034;2024-02-23T10:00:56;99269.44;;;12.64;89.59
41800;BME280;27468;47.460;19.034;2024-02-23T10:03:24;99269.44;;;12.64;90.58
41800;BME280;27468;47.460;19.034;2024-02-23T10:05:51;99258.16;;;12.61;90.87
41800;BME280;27468;47.460;19.034;2024-02-23T10:08:16;99258.59;;;12.70;91.00
41800;BME280;27468;47.460;19.034;2024-02-23T10:10:41;99240.34;;;12.64;92.06
41800;BME280;27468;47.460;19.034;2024-02-23T10:13:07;99266.06;;;12.61;90.55
41800;BME280;27468;47.460;19.034;2024-02-23T10:15:33;99259.78;;;12.63;90.52
41800;BME280;27468;47.460;19.034;2024-02-23T10:17:58;99260.84;;;12.78;91.17
41800;BME280;27468;47.460;19.034;2024-02-23T10:20:24;99250.53;;;12.72;90.44
41800;BME280;27468;47.460;19.034;2024-02-23T10:22:49;99247.53;;;12.79;90.65
41800;BME280;27468;47.460;19.034;2024-02-23T10:25:15;99246.75;;;12.77;91.65
41800;BME280;27468;47.460;19.034;2024-02-23T10:27:41;99244.31;;;12.73;91.27
41800;BME280;27468;47.460;19.034;2024-02-23T10:30:08;99256.56;;;12.75;91.40
41800;BME280;27468;47.460;19.034;2024-02-23T10:32:38;99240.13;;;12.69;92.09
41800;BME280;27468;47.460;19.034;2024-02-23T10:35:08;99247.69;;;12.76;91.45
41800;BME280;27468;47.460;19.034;2024-02-23T10:37:34;99234.13;;;12.65;90.88
41800;BME280;27468;47.460;19.034;2024-02-23T10:40:00;99277.56;;;12.97;89.96
41800;BME280;27468;47.460;19.034;2024-02-23T10:42:33;99238.81;;;12.77;89.81
41800;BME280;27468;47.460;19.034;2024-02-23T10:44:59;99259.69;;;13.02;89.32
41800;BME280;27468;47.460;19.034;2024-02-23T10:47:26;99276.72;;;13.15;90.30
41800;BME280;27468;47.460;19.034;2024-02-23T10:49:53;99268.84;;;13.14;88.82
41800;BME280;27468;47.460;19.034;2024-02-23T10:52:22;99273.72;;;13.04;87.74
41800;BME280;27468;47.460;19.034;2024-02-23T10:54:49;99273.63;;;13.06;87.90
41800;BME280;27468;47.460;19.034;2024-02-23T10:57:17;99245.75;;;12.99;87.62
41800;BME280;27468;47.460;19.034;2024-02-23T10:59:46;99265.56;;;13.09;86.07
41800;BME280;27468;47.460;19.034;2024-02-23T11:02:13;99244.81;;;13.00;85.39
41800;BME280;27468;47.460;19.034;2024-02-23T11:04:48;99233.16;;;13.04;87.04
41800;BME280;27468;47.460;19.034;2024-02-23T11:07:20;99277.94;;;13.27;87.20
41800;BME280;27468;47.460;19.034;2024-02-23T11:09:52;99274.66;;;13.39;86.87
41800;BME280;27468;47.460;19.034;2024-02-23T11:12:29;99244.91;;;13.34;85.58
41800;BME280;27468;47.460;19.034;2024-02-23T11:15:00;99273.00;;;13.19;87.79
41800;BME280;27468;47.460;19.034;2024-02-23T11:17:32;99269.31;;;13.41;86.99
41800;BME280;27468;47.460;19.034;2024-02-23T11:19:58;99262.69;;;13.49;86.47
41800;BME280;27468;47.460;19.034;2024-02-23T11:22:27;99246.75;;;13.15;87.67
41800;BME280;27468;47.460;19.034;2024-02-23T11:24:54;99267.06;;;12.96;88.54
41800;BME280;27468;47.460;19.034;2024-02-23T11:27:24;99228.50;;;13.09;85.33
41800;BME280;27468;47.460;19.034;2024-02-23T11:30:06;99257.38;;;13.32;86.31
41800;BME280;27468;47.460;19.034;2024-02-23T11:32:40;99254.81;;;13.12;88.11
41800;BME280;27468;47.460;19.034;2024-02-23T11:35:17;99262.06;;;12.89;87.44
41800;BME280;27468;47.460;19.034;2024-02-23T11:37:56;99270.56;;;12.96;86.49
41800;BME280;27468;47.460;19.034;2024-02-23T11:40:34;99260.78;;;12.79;83.70
41800;BME280;27468;47.460;19.034;2024-02-23T11:43:00;99268.56;;;13.01;85.14
41800;BME280;27468;47.460;19.034;2024-02-23T11:45:28;99267.78;;;13.18;86.05
41800;BME280;27468;47.460;19.034;2024-02-23T11:47:53;99239.41;;;13.21;85.64
41800;BME280;27468;47.460;19.034;2024-02-23T11:50:19;99237.91;;;13.33;84.48
41800;BME280;27468;47.460;19.034;2024-02-23T11:52:46;99256.31;;;13.53;84.34
41800;BME280;27468;47.460;19.034;2024-02-23T11:55:11;99240.84;;;13.63;85.57
41800;BME280;27468;47.460;19.034;2024-02-23T11:57:38;99239.34;;;13.75;84.57
41800;BME280;27468;47.460;19.034;2024-02-23T12:00:04;99235.06;;;13.72;84.30
41800;BME280;27468;47.460;19.034;2024-02-23T12:02:35;99229.78;;;13.72;84.02
41800;BME280;27468;47.460;19.034;2024-02-23T12:05:00;99221.91;;;13.71;83.09
41800;BME280;27468;47.460;19.034;2024-02-23T12:07:26;99241.69;;;13.81;81.69
41800;BME280;27468;47.460;19.034;2024-02-23T12:09:54;99218.72;;;13.81;80.98
41800;BME280;27468;47.460;19.034;2024-02-23T12:12:19;99234.00;;;14.09;81.53
41800;BME280;27468;47.460;19.034;2024-02-23T12:14:45;99209.69;;;13.85;79.20
41800;BME280;27468;47.460;19.034;2024-02-23T12:17:10;99231.81;;;14.17;79.02
41800;BME280;27468;47.460;19.034;2024-02-23T12:19:39;99244.66;;;14.42;78.05
41800;BME280;27468;47.460;19.034;2024-02-23T12:22:05;99238.22;;;14.46;75.72
41800;BME280;27468;47.460;19.034;2024-02-23T12:24:30;99199.38;;;14.30;74.51
41800;BME280;27468;47.460;19.034;2024-02-23T12:26:56;99225.09;;;14.61;74.70
41800;BME280;27468;47.460;19.034;2024-02-23T12:29:21;99223.19;;;14.47;74.30
41800;BME280;27468;47.460;19.034;2024-02-23T12:31:47;99204.25;;;14.37;72.68
41800;BME280;27468;47.460;19.034;2024-02-23T12:34:13;99207.75;;;14.38;72.97
41800;BME280;27468;47.460;19.034;2024-02-23T12:36:39;99215.97;;;14.33;73.96
41800;BME280;27468;47.460;19.034;2024-02-23T12:39:04;99229.47;;;14.29;73.35
41800;BME280;27468;47.460;19.034;2024-02-23T12:41:30;99232.69;;;14.18;73.20
41800;BME280;27468;47.460;19.034;2024-02-23T12:43:56;99213.00;;;13.89;73.63